sensor_id;sensor_type;location;lat;lon;timestamp;temperature;humidity
24164;DHT22;12319;49.204;8.116;2023-07-13T00:01:58;20.60;57.80
24164;DHT22;12319;49.204;8.116;2023-07-13T00:04:24;20.60;57.80
24164;DHT22;12319;49.204;8.116;2023-07-13T00:06:53;20.60;57.90
24164;DHT22;12319;49.204;8.116;2023-07-13T00:09:20;20.60;58.00
24164;DHT22;12319;49.204;8.116;2023-07-13T00:11:52;20.60;58.00
24164;DHT22;12319;49.204;8.116;2023-07-13T00:14:18;20.50;58.00
24164;DHT22;12319;49.204;8.116;2023-07-13T00:16:44;20.40;58.20
24164;DHT22;12319;49.204;8.116;2023-07-13T00:19:11;20.40;58.30
24164;DHT22;12319;49.204;8.116;2023-07-13T00:21:41;20.40;58.50
24164;DHT22;12319;49.204;8.116;2023-07-13T00:24:08;20.40;58.30
24164;DHT22;12319;49.204;8.116;2023-07-13T00:26:38;20.30;58.50
24164;DHT22;12319;49.204;8.116;2023-07-13T00:29:04;20.30;58.50
24164;DHT22;12319;49.204;8.116;2023-07-13T00:31:34;20.20;58.50
24164;DHT22;12319;49.204;8.116;2023-07-13T00:34:00;20.30;58.50
24164;DHT22;12319;49.204;8.116;2023-07-13T00:36:26;20.30;58.50
24164;DHT22;12319;49.204;8.116;2023-07-13T00:38:52;20.20;58.70
24164;DHT22;12319;49.204;8.116;2023-07-13T00:41:18;20.20;59.00
24164;DHT22;12319;49.204;8.116;2023-07-13T00:43:44;20.10;59.10
24164;DHT22;12319;49.204;8.116;2023-07-13T00:46:23;20.10;59.10
24164;DHT22;12319;49.204;8.116;2023-07-13T00:48:50;20.00;59.30
24164;DHT22;12319;49.204;8.116;2023-07-13T00:51:21;20.00;59.40
24164;DHT22;12319;49.204;8.116;2023-07-13T00:53:47;19.90;59.30
24164;DHT22;12319;49.204;8.116;2023-07-13T00:56:12;19.90;59.80
24164;DHT22;12319;49.204;8.116;2023-07-13T00:58:38;19.80;59.70
24164;DHT22;12319;49.204;8.116;2023-07-13T01:01:04;19.80;59.70
24164;DHT22;12319;49.204;8.116;2023-07-13T01:03:30;19.70;59.70
24164;DHT22;12319;49.204;8.116;2023-07-13T01:05:55;19.80;60.00
24164;DHT22;12319;49.204;8.116;2023-07-13T01:08:22;19.70;60.10
24164;DHT22;12319;49.204;8.116;2023-07-13T01:10:55;19.60;60.20
24164;DHT22;12319;49.204;8.116;2023-07-13T01:13:21;19.60;60.30
24164;DHT22;12319;49.204;8.116;2023-07-13T01:15:48;19.60;60.30
24164;DHT22;12319;49.204;8.116;2023-07-13T01:18:17;19.60;60.50
24164;DHT22;12319;49.204;8.116;2023-07-13T01:20:56;19.50;60.50
24164;DHT22;12319;49.204;8.116;2023-07-13T01:23:23;19.50;60.60
24164;DHT22;12319;49.204;8.116;2023-07-13T01:25:50;19.50;60.40
24164;DHT22;12319;49.204;8.116;2023-07-13T01:28:16;19.30;60.30
24164;DHT22;12319;49.204;8.116;2023-07-13T01:30:43;19.40;60.60
24164;DHT22;12319;49.204;8.116;2023-07-13T01:33:12;19.40;60.80
24164;DHT22;12319;49.204;8.116;2023-07-13T01:35:38;19.20;60.70
24164;DHT22;12319;49.204;8.116;2023-07-13T01:38:04;19.20;60.70
24164;DHT22;12319;49.204;8.116;2023-07-13T01:40:30;19.10;60.90
24164;DHT22;12319;49.204;8.116;2023-07-13T01:42:57;19.20;61.10
24164;DHT22;12319;49.204;8.116;2023-07-13T01:45:23;19.20;61.20
24164;DHT22;12319;49.204;8.116;2023-07-13T01:47:48;19.10;61.70
24164;DHT22;12319;49.204;8.116;2023-07-13T01:50:14;19.00;61.70
24164;DHT22;12319;49.204;8.116;2023-07-13T01:52:40;19.00;61.50
24164;DHT22;12319;49.204;8.116;2023-07-13T01:55:06;18.90;61.80
24164;DHT22;12319;49.204;8.116;2023-07-13T01:57:31;18.90;61.90
24164;DHT22;12319;49.204;8.116;2023-07-13T01:59:57;18.90;62.00
24164;DHT22;12319;49.204;8.116;2023-07-13T02:02:23;18.80;62.10
24164;DHT22;12319;49.204;8.116;2023-07-13T02:04:48;18.80;62.20
24164;DHT22;12319;49.204;8.116;2023-07-13T02:07:14;18.80;62.30
24164;DHT22;12319;49.204;8.116;2023-07-13T02:09:40;18.80;62.50
24164;DHT22;12319;49.204;8.116;2023-07-13T02:12:07;18.70;62.40
24164;DHT22;12319;49.204;8.116;2023-07-13T02:14:33;18.70;62.70
24164;DHT22;12319;49.204;8.116;2023-07-13T02:16:59;18.70;63.00
24164;DHT22;12319;49.204;8.116;2023-07-13T02:19:24;17.90;62.70
24164;DHT22;12319;49.204;8.116;2023-07-13T02:21:50;18.60;62.70
24164;DHT22;12319;49.204;8.116;2023-07-13T02:24:16;18.60;63.20
24164;DHT22;12319;49.204;8.116;2023-07-13T02:26:43;18.50;63.20
24164;DHT22;12319;49.204;8.116;2023-07-13T02:29:09;18.50;63.70
24164;DHT22;12319;49.204;8.116;2023-07-13T02:31:35;18.50;63.20
24164;DHT22;12319;49.204;8.116;2023-07-13T02:34:01;18.40;63.20
24164;DHT22;12319;49.204;8.116;2023-07-13T02:36:28;18.40;64.00
24164;DHT22;12319;49.204;8.116;2023-07-13T02:38:54;18.40;63.50
24164;DHT22;12319;49.204;8.116;2023-07-13T02:41:19;18.40;63.90
24164;DHT22;12319;49.204;8.116;2023-07-13T02:43:45;18.30;63.90
24164;DHT22;12319;49.204;8.116;2023-07-13T02:46:10;18.20;63.90
24164;DHT22;12319;49.204;8.116;2023-07-13T02:48:37;18.40;64.50
24164;DHT22;12319;49.204;8.116;2023-07-13T02:51:03;18.20;64.40
24164;DHT22;12319;49.204;8.116;2023-07-13T02:53:29;18.20;64.50
24164;DHT22;12319;49.204;8.116;2023-07-13T02:55:55;18.20;64.60
24164;DHT22;12319;49.204;8.116;2023-07-13T02:58:20;18.20;64.90
24164;DHT22;12319;49.204;8.116;2023-07-13T03:00:47;18.10;64.70
24164;DHT22;12319;49.204;8.116;2023-07-13T03:03:14;18.10;64.70
24164;DHT22;12319;49.204;8.116;2023-07-13T03:05:41;18.10;64.60
24164;DHT22;12319;49.204;8.116;2023-07-13T03:08:08;18.20;64.90
24164;DHT22;12319;49.204;8.116;2023-07-13T03:10:33;18.10;64.90
24164;DHT22;12319;49.204;8.116;2023-07-13T03:12:59;18.10;65.10
24164;DHT22;12319;49.204;8.116;2023-07-13T03:15:24;18.00;64.90
24164;DHT22;12319;49.204;8.116;2023-07-13T03:17:50;18.00;65.30
24164;DHT22;12319;49.204;8.116;2023-07-13T03:20:15;18.10;65.30
24164;DHT22;12319;49.204;8.116;2023-07-13T03:22:42;18.00;65.20
24164;DHT22;12319;49.204;8.116;2023-07-13T03:25:08;18.00;65.30
24164;DHT22;12319;49.204;8.116;2023-07-13T03:27:33;17.90;65.20
24164;DHT22;12319;49.204;8.116;2023-07-13T03:29:59;17.90;65.40
24164;DHT22;12319;49.204;8.116;2023-07-13T03:32:24;17.90;65.50
24164;DHT22;12319;49.204;8.116;2023-07-13T03:34:50;17.90;65.40
24164;DHT22;12319;49.204;8.116;2023-07-13T03:37:15;17.90;65.60
24164;DHT22;12319;49.204;8.116;2023-07-13T03:39:41;18.10;65.90
24164;DHT22;12319;49.204;8.116;2023-07-13T03:42:07;17.90;65.80
24164;DHT22;12319;49.204;8.116;2023-07-13T03:44:33;17.90;65.80
24164;DHT22;12319;49.204;8.116;2023-07-13T03:46:58;17.80;65.80
24164;DHT22;12319;49.204;8.116;2023-07-13T03:49:24;17.80;65.80
24164;DHT22;12319;49.204;8.116;2023-07-13T03:51:49;18.40;66.40
24164;DHT22;12319;49.204;8.116;2023-07-13T03:54:15;17.80;65.90
24164;DHT22;12319;49.204;8.116;2023-07-13T03:56:41;17.80;65.80
24164;DHT22;12319;49.204;8.116;2023-07-13T03:59:06;18.00;66.00
24164;DHT22;12319;49.204;8.116;2023-07-13T04:01:32;17.80;65.70
24164;DHT22;12319;49.204;8.116;2023-07-13T04:03:57;17.80;66.20
24164;DHT22;12319;49.204;8.116;2023-07-13T04:06:27;17.80;66.20
24164;DHT22;12319;49.204;8.116;2023-07-13T04:08:55;17.80;65.80
24164;DHT22;12319;49.204;8.116;2023-07-13T04:11:24;17.70;66.30
24164;DHT22;12319;49.204;8.116;2023-07-13T04:13:50;17.80;66.40
24164;DHT22;12319;49.204;8.116;2023-07-13T04:16:17;17.80;66.20
24164;DHT22;12319;49.204;8.116;2023-07-13T04:18:44;17.80;66.40
24164;DHT22;12319;49.204;8.116;2023-07-13T04:21:10;17.80;66.50
24164;DHT22;12319;49.204;8.116;2023-07-13T04:23:37;17.80;66.70
24164;DHT22;12319;49.204;8.116;2023-07-13T04:26:03;17.90;66.80
24164;DHT22;12319;49.204;8.116;2023-07-13T04:28:29;17.90;66.70
24164;DHT22;12319;49.204;8.116;2023-07-13T04:30:55;17.90;66.60
24164;DHT22;12319;49.204;8.116;2023-07-13T04:33:22;18.00;66.70
24164;DHT22;12319;49.204;8.116;2023-07-13T04:35:51;18.00;66.80
24164;DHT22;12319;49.204;8.116;2023-07-13T04:38:25;18.10;66.80
24164;DHT22;12319;49.204;8.116;2023-07-13T04:40:54;18.10;66.80
24164;DHT22;12319;49.204;8.116;2023-07-13T04:43:20;18.10;66.70
24164;DHT22;12319;49.204;8.116;2023-07-13T04:45:45;18.20;66.70
24164;DHT22;12319;49.204;8.116;2023-07-13T04:48:11;18.20;66.60
24164;DHT22;12319;49.204;8.116;2023-07-13T04:50:37;17.90;66.30
24164;DHT22;12319;49.204;8.116;2023-07-13T04:53:03;18.20;66.60
24164;DHT22;12319;49.204;8.116;2023-07-13T04:55:30;18.30;66.80
24164;DHT22;12319;49.204;8.116;2023-07-13T04:57:56;18.30;66.80
24164;DHT22;12319;49.204;8.116;2023-07-13T05:00:24;18.20;66.70
24164;DHT22;12319;49.204;8.116;2023-07-13T05:02:50;18.30;66.80
24164;DHT22;12319;49.204;8.116;2023-07-13T05:05:15;18.40;66.90
24164;DHT22;12319;49.204;8.116;2023-07-13T05:07:41;18.50;66.80
24164;DHT22;12319;49.204;8.116;2023-07-13T05:10:07;18.50;66.90
24164;DHT22;12319;49.204;8.116;2023-07-13T05:12:32;18.60;66.60
24164;DHT22;12319;49.204;8.116;2023-07-13T05:14:58;18.70;66.60
24164;DHT22;12319;49.204;8.116;2023-07-13T05:17:24;18.80;66.70
24164;DHT22;12319;49.204;8.116;2023-07-13T05:19:49;18.80;66.40
24164;DHT22;12319;49.204;8.116;2023-07-13T05:22:15;19.00;66.20
24164;DHT22;12319;49.204;8.116;2023-07-13T05:24:40;19.20;66.00
24164;DHT22;12319;49.204;8.116;2023-07-13T05:27:06;19.30;65.90
24164;DHT22;12319;49.204;8.116;2023-07-13T05:29:32;19.50;65.80
24164;DHT22;12319;49.204;8.116;2023-07-13T05:31:57;19.60;65.60
24164;DHT22;12319;49.204;8.116;2023-07-13T05:34:23;19.70;65.40
24164;DHT22;12319;49.204;8.116;2023-07-13T05:36:49;19.80;65.30
24164;DHT22;12319;49.204;8.116;2023-07-13T05:39:16;19.90;65.20
24164;DHT22;12319;49.204;8.116;2023-07-13T05:41:41;19.90;65.40
24164;DHT22;12319;49.204;8.116;2023-07-13T05:44:07;20.00;64.80
24164;DHT22;12319;49.204;8.116;2023-07-13T05:46:33;20.00;64.70
24164;DHT22;12319;49.204;8.116;2023-07-13T05:48:59;20.20;64.70
24164;DHT22;12319;49.204;8.116;2023-07-13T05:51:24;20.20;64.50
24164;DHT22;12319;49.204;8.116;2023-07-13T05:53:50;20.30;64.40
24164;DHT22;12319;49.204;8.116;2023-07-13T05:56:15;20.70;64.00
24164;DHT22;12319;49.204;8.116;2023-07-13T05:58:41;20.70;64.50
24164;DHT22;12319;49.204;8.116;2023-07-13T06:01:10;21.30;64.90
24164;DHT22;12319;49.204;8.116;2023-07-13T06:03:36;22.90;65.00
24164;DHT22;12319;49.204;8.116;2023-07-13T06:06:06;24.90;63.20
24164;DHT22;12319;49.204;8.116;2023-07-13T06:08:32;27.10;59.60
24164;DHT22;12319;49.204;8.116;2023-07-13T06:11:05;28.90;56.60
24164;DHT22;12319;49.204;8.116;2023-07-13T06:13:30;30.80;54.00
24164;DHT22;12319;49.204;8.116;2023-07-13T06:15:56;32.00;51.10
24164;DHT22;12319;49.204;8.116;2023-07-13T06:18:22;32.90;48.30
24164;DHT22;12319;49.204;8.116;2023-07-13T06:20:47;33.80;47.50
24164;DHT22;12319;49.204;8.116;2023-07-13T06:23:13;34.80;47.10
24164;DHT22;12319;49.204;8.116;2023-07-13T06:25:39;36.00;45.40
24164;DHT22;12319;49.204;8.116;2023-07-13T06:28:05;36.30;44.50
24164;DHT22;12319;49.204;8.116;2023-07-13T06:30:30;36.50;43.80
24164;DHT22;12319;49.204;8.116;2023-07-13T06:32:57;36.80;43.30
24164;DHT22;12319;49.204;8.116;2023-07-13T06:35:22;37.50;42.50
24164;DHT22;12319;49.204;8.116;2023-07-13T06:37:48;38.10;41.40
24164;DHT22;12319;49.204;8.116;2023-07-13T06:40:14;38.60;41.30
24164;DHT22;12319;49.204;8.116;2023-07-13T06:42:39;39.10;40.90
24164;DHT22;12319;49.204;8.116;2023-07-13T06:45:05;39.70;39.50
24164;DHT22;12319;49.204;8.116;2023-07-13T06:47:31;40.40;39.10
24164;DHT22;12319;49.204;8.116;2023-07-13T06:49:57;41.00;38.70
24164;DHT22;12319;49.204;8.116;2023-07-13T06:52:23;41.60;38.20
24164;DHT22;12319;49.204;8.116;2023-07-13T06:54:48;42.20;36.90
24164;DHT22;12319;49.204;8.116;2023-07-13T06:57:14;42.70;36.50
24164;DHT22;12319;49.204;8.116;2023-07-13T06:59:39;43.10;36.10
24164;DHT22;12319;49.204;8.116;2023-07-13T07:02:05;43.30;35.80
24164;DHT22;12319;49.204;8.116;2023-07-13T07:04:31;43.60;35.60
24164;DHT22;12319;49.204;8.116;2023-07-13T07:06:56;43.90;33.50
24164;DHT22;12319;49.204;8.116;2023-07-13T07:09:22;44.00;34.50
24164;DHT22;12319;49.204;8.116;2023-07-13T07:11:48;44.30;33.60
24164;DHT22;12319;49.204;8.116;2023-07-13T07:14:13;44.30;33.50
24164;DHT22;12319;49.204;8.116;2023-07-13T07:16:39;44.50;32.80
24164;DHT22;12319;49.204;8.116;2023-07-13T07:19:04;44.70;32.50
24164;DHT22;12319;49.204;8.116;2023-07-13T07:21:30;45.00;32.70
24164;DHT22;12319;49.204;8.116;2023-07-13T07:23:56;45.30;32.10
24164;DHT22;12319;49.204;8.116;2023-07-13T07:26:22;45.70;31.90
24164;DHT22;12319;49.204;8.116;2023-07-13T07:28:48;45.80;31.30
24164;DHT22;12319;49.204;8.116;2023-07-13T07:31:13;45.90;31.40
24164;DHT22;12319;49.204;8.116;2023-07-13T07:33:39;46.10;31.00
24164;DHT22;12319;49.204;8.116;2023-07-13T07:36:05;46.40;30.50
24164;DHT22;12319;49.204;8.116;2023-07-13T07:38:30;46.60;30.60
24164;DHT22;12319;49.204;8.116;2023-07-13T07:40:56;46.90;30.00
24164;DHT22;12319;49.204;8.116;2023-07-13T07:43:21;47.20;29.50
24164;DHT22;12319;49.204;8.116;2023-07-13T07:45:47;47.50;29.70
24164;DHT22;12319;49.204;8.116;2023-07-13T07:48:12;47.50;29.60
24164;DHT22;12319;49.204;8.116;2023-07-13T07:50:38;47.60;28.90
24164;DHT22;12319;49.204;8.116;2023-07-13T07:53:05;47.40;28.60
24164;DHT22;12319;49.204;8.116;2023-07-13T07:55:33;47.20;28.30
24164;DHT22;12319;49.204;8.116;2023-07-13T07:58:00;47.10;28.10
24164;DHT22;12319;49.204;8.116;2023-07-13T08:00:26;47.10;28.40
24164;DHT22;12319;49.204;8.116;2023-07-13T08:02:52;47.10;28.40
24164;DHT22;12319;49.204;8.116;2023-07-13T08:05:18;47.10;28.00
24164;DHT22;12319;49.204;8.116;2023-07-13T08:07:43;47.10;28.40
24164;DHT22;12319;49.204;8.116;2023-07-13T08:10:09;46.90;28.20
24164;DHT22;12319;49.204;8.116;2023-07-13T08:12:39;46.50;27.80
24164;DHT22;12319;49.204;8.116;2023-07-13T08:15:06;45.80;26.90
24164;DHT22;12319;49.204;8.116;2023-07-13T08:17:34;45.10;27.80
24164;DHT22;12319;49.204;8.116;2023-07-13T08:19:59;44.20;27.70
24164;DHT22;12319;49.204;8.116;2023-07-13T08:22:25;43.40;28.60
24164;DHT22;12319;49.204;8.116;2023-07-13T08:24:50;43.20;28.30
24164;DHT22;12319;49.204;8.116;2023-07-13T08:27:22;43.00;28.60
24164;DHT22;12319;49.204;8.116;2023-07-13T08:29:49;43.00;28.40
24164;DHT22;12319;49.204;8.116;2023-07-13T08:32:14;42.80;27.90
24164;DHT22;12319;49.204;8.116;2023-07-13T08:34:40;42.60;28.00
24164;DHT22;12319;49.204;8.116;2023-07-13T08:37:06;41.50;27.60
24164;DHT22;12319;49.204;8.116;2023-07-13T08:39:32;40.90;27.50
24164;DHT22;12319;49.204;8.116;2023-07-13T08:42:02;39.70;28.30
24164;DHT22;12319;49.204;8.116;2023-07-13T08:47:16;37.00;29.30
24164;DHT22;12319;49.204;8.116;2023-07-13T08:49:44;36.00;30.00
24164;DHT22;12319;49.204;8.116;2023-07-13T08:52:17;35.00;30.80
24164;DHT22;12319;49.204;8.116;2023-07-13T08:54:50;34.30;31.30
24164;DHT22;12319;49.204;8.116;2023-07-13T08:57:19;33.60;31.80
24164;DHT22;12319;49.204;8.116;2023-07-13T08:59:45;33.10;32.30
24164;DHT22;12319;49.204;8.116;2023-07-13T09:02:23;32.80;32.70
24164;DHT22;12319;49.204;8.116;2023-07-13T09:10:44;31.80;33.70
24164;DHT22;12319;49.204;8.116;2023-07-13T09:13:31;31.50;34.30
24164;DHT22;12319;49.204;8.116;2023-07-13T09:16:01;31.30;34.60
24164;DHT22;12319;49.204;8.116;2023-07-13T09:18:49;31.10;34.60
24164;DHT22;12319;49.204;8.116;2023-07-13T09:21:23;31.00;35.00
24164;DHT22;12319;49.204;8.116;2023-07-13T09:23:54;30.70;35.20
24164;DHT22;12319;49.204;8.116;2023-07-13T09:26:24;30.60;35.60
24164;DHT22;12319;49.204;8.116;2023-07-13T09:29:10;30.40;35.90
24164;DHT22;12319;49.204;8.116;2023-07-13T09:31:46;30.00;35.70
24164;DHT22;12319;49.204;8.116;2023-07-13T09:34:13;30.10;36.30
24164;DHT22;12319;49.204;8.116;2023-07-13T09:36:39;30.00;36.30
24164;DHT22;12319;49.204;8.116;2023-07-13T09:44:42;29.40;37.20
24164;DHT22;12319;49.204;8.116;2023-07-13T09:47:20;29.30;37.10
24164;DHT22;12319;49.204;8.116;2023-07-13T09:49:59;29.10;37.20
24164;DHT22;12319;49.204;8.116;2023-07-13T09:52:26;29.20;37.40
24164;DHT22;12319;49.204;8.116;2023-07-13T09:54:53;29.20;37.30
24164;DHT22;12319;49.204;8.116;2023-07-13T09:57:25;29.30;37.50
24164;DHT22;12319;49.204;8.116;2023-07-13T09:59:52;29.40;37.40
24164;DHT22;12319;49.204;8.116;2023-07-13T10:02:29;29.50;37.20
24164;DHT22;12319;49.204;8.116;2023-07-13T10:07:25;29.70;37.10
24164;DHT22;12319;49.204;8.116;2023-07-13T10:09:54;29.60;37.20
24164;DHT22;12319;49.204;8.116;2023-07-13T10:12:21;29.70;37.30
24164;DHT22;12319;49.204;8.116;2023-07-13T10:14:54;29.70;37.00
24164;DHT22;12319;49.204;8.116;2023-07-13T10:17:27;29.80;36.90
24164;DHT22;12319;49.204;8.116;2023-07-13T10:20:04;29.70;36.70
24164;DHT22;12319;49.204;8.116;2023-07-13T10:25:24;29.70;36.80
24164;DHT22;12319;49.204;8.116;2023-07-13T10:30:39;29.80;36.50
24164;DHT22;12319;49.204;8.116;2023-07-13T10:33:10;29.90;36.50
24164;DHT22;12319;49.204;8.116;2023-07-13T10:35:38;30.00;37.00
24164;DHT22;12319;49.204;8.116;2023-07-13T10:38:07;30.00;36.70
24164;DHT22;12319;49.204;8.116;2023-07-13T10:43:24;29.90;35.80
24164;DHT22;12319;49.204;8.116;2023-07-13T10:45:52;29.80;36.30
24164;DHT22;12319;49.204;8.116;2023-07-13T10:48:20;29.60;36.30
24164;DHT22;12319;49.204;8.116;2023-07-13T10:50:49;29.40;36.80
24164;DHT22;12319;49.204;8.116;2023-07-13T10:53:30;29.20;36.90
24164;DHT22;12319;49.204;8.116;2023-07-13T10:56:04;29.10;36.90
24164;DHT22;12319;49.204;8.116;2023-07-13T10:58:41;29.10;37.10
24164;DHT22;12319;49.204;8.116;2023-07-13T11:01:12;29.00;36.70
24164;DHT22;12319;49.204;8.116;2023-07-13T11:03:58;28.90;36.70
24164;DHT22;12319;49.204;8.116;2023-07-13T11:08:58;28.90;37.00
24164;DHT22;12319;49.204;8.116;2023-07-13T11:18:50;29.30;36.50
24164;DHT22;12319;49.204;8.116;2023-07-13T11:21:25;29.30;36.50
24164;DHT22;12319;49.204;8.116;2023-07-13T11:23:55;29.40;36.50
24164;DHT22;12319;49.204;8.116;2023-07-13T11:29:36;29.30;36.40
24164;DHT22;12319;49.204;8.116;2023-07-13T11:32:22;29.20;36.60
24164;DHT22;12319;49.204;8.116;2023-07-13T11:34:49;29.20;36.60
24164;DHT22;12319;49.204;8.116;2023-07-13T11:37:17;29.10;36.50
24164;DHT22;12319;49.204;8.116;2023-07-13T11:39:44;29.20;36.80
24164;DHT22;12319;49.204;8.116;2023-07-13T11:42:17;29.10;36.60
24164;DHT22;12319;49.204;8.116;2023-07-13T11:44:46;28.90;36.60
24164;DHT22;12319;49.204;8.116;2023-07-13T11:47:18;28.80;37.00
24164;DHT22;12319;49.204;8.116;2023-07-13T11:49:53;28.60;36.80
24164;DHT22;12319;49.204;8.116;2023-07-13T11:52:33;28.50;37.00
24164;DHT22;12319;49.204;8.116;2023-07-13T11:55:01;28.50;37.30
24164;DHT22;12319;49.204;8.116;2023-07-13T11:57:29;28.70;37.30
24164;DHT22;12319;49.204;8.116;2023-07-13T12:00:02;28.90;37.10
24164;DHT22;12319;49.204;8.116;2023-07-13T12:02:32;29.20;36.90
24164;DHT22;12319;49.204;8.116;2023-07-13T12:05:00;29.50;36.90
24164;DHT22;12319;49.204;8.116;2023-07-13T12:07:30;29.70;36.70
24164;DHT22;12319;49.204;8.116;2023-07-13T12:10:24;29.90;36.50
24164;DHT22;12319;49.204;8.116;2023-07-13T12:15:20;30.50;36.00
24164;DHT22;12319;49.204;8.116;2023-07-13T12:17:47;30.50;35.60
24164;DHT22;12319;49.204;8.116;2023-07-13T12:20:24;30.30;35.50
24164;DHT22;12319;49.204;8.116;2023-07-13T12:22:51;30.20;35.20
24164;DHT22;12319;49.204;8.116;2023-07-13T12:25:18;30.00;35.30
24164;DHT22;12319;49.204;8.116;2023-07-13T12:27:49;29.90;35.60
24164;DHT22;12319;49.204;8.116;2023-07-13T12:30:26;29.90;35.70
24164;DHT22;12319;49.204;8.116;2023-07-13T12:33:07;29.80;35.80
24164;DHT22;12319;49.204;8.116;2023-07-13T12:35:40;29.70;35.50
24164;DHT22;12319;49.204;8.116;2023-07-13T12:38:10;29.60;35.50
24164;DHT22;12319;49.204;8.116;2023-07-13T12:40:36;29.40;35.80
24164;DHT22;12319;49.204;8.116;2023-07-13T12:43:03;29.10;35.70
24164;DHT22;12319;49.204;8.116;2023-07-13T12:45:32;29.00;36.10
24164;DHT22;12319;49.204;8.116;2023-07-13T12:48:04;29.00;36.50
24164;DHT22;12319;49.204;8.116;2023-07-13T12:50:43;29.00;36.70
24164;DHT22;12319;49.204;8.116;2023-07-13T12:53:23;29.10;36.90
24164;DHT22;12319;49.204;8.116;2023-07-13T12:55:49;29.40;37.00
24164;DHT22;12319;49.204;8.116;2023-07-13T12:58:40;29.80;36.80
24164;DHT22;12319;49.204;8.116;2023-07-13T13:01:10;29.90;36.60
24164;DHT22;12319;49.204;8.116;2023-07-13T13:03:40;29.90;36.80
24164;DHT22;12319;49.204;8.116;2023-07-13T13:06:18;29.80;36.60
24164;DHT22;12319;49.204;8.116;2023-07-13T13:08:47;29.80;36.70
24164;DHT22;12319;49.204;8.116;2023-07-13T13:11:14;30.10;36.70
24164;DHT22;12319;49.204;8.116;2023-07-13T13:13:41;30.50;36.60
24164;DHT22;12319;49.204;8.116;2023-07-13T13:18:43;31.20;36.00
24164;DHT22;12319;49.204;8.116;2023-07-13T13:21:10;31.20;35.80
24164;DHT22;12319;49.204;8.116;2023-07-13T13:23:35;31.20;35.70
24164;DHT22;12319;49.204;8.116;2023-07-13T13:26:01;31.10;35.80
24164;DHT22;12319;49.204;8.116;2023-07-13T13:28:27;31.00;35.90
24164;DHT22;12319;49.204;8.116;2023-07-13T13:30:53;31.40;36.60
24164;DHT22;12319;49.204;8.116;2023-07-13T13:33:20;31.40;36.00
24164;DHT22;12319;49.204;8.116;2023-07-13T13:35:47;32.00;35.60
24164;DHT22;12319;49.204;8.116;2023-07-13T13:38:14;32.40;35.10
24164;DHT22;12319;49.204;8.116;2023-07-13T13:40:41;32.70;34.90
24164;DHT22;12319;49.204;8.116;2023-07-13T13:43:16;32.70;34.50
24164;DHT22;12319;49.204;8.116;2023-07-13T13:45:43;32.60;34.80
24164;DHT22;12319;49.204;8.116;2023-07-13T13:48:23;32.30;35.10
24164;DHT22;12319;49.204;8.116;2023-07-13T13:50:56;32.00;34.70
24164;DHT22;12319;49.204;8.116;2023-07-13T13:53:21;31.90;35.00
24164;DHT22;12319;49.204;8.116;2023-07-13T13:55:49;31.90;34.80
24164;DHT22;12319;49.204;8.116;2023-07-13T13:58:14;32.00;34.80
24164;DHT22;12319;49.204;8.116;2023-07-13T14:00:40;32.40;34.50
24164;DHT22;12319;49.204;8.116;2023-07-13T14:03:13;32.50;34.20
24164;DHT22;12319;49.204;8.116;2023-07-13T14:05:39;32.50;34.00
24164;DHT22;12319;49.204;8.116;2023-07-13T14:08:15;32.40;34.50
24164;DHT22;12319;49.204;8.116;2023-07-13T14:10:42;32.40;34.10
24164;DHT22;12319;49.204;8.116;2023-07-13T14:13:17;32.70;34.30
24164;DHT22;12319;49.204;8.116;2023-07-13T14:15:44;33.20;34.10
24164;DHT22;12319;49.204;8.116;2023-07-13T14:18:10;33.70;33.90
24164;DHT22;12319;49.204;8.116;2023-07-13T14:20:36;34.20;33.20
24164;DHT22;12319;49.204;8.116;2023-07-13T14:23:02;34.30;33.00
24164;DHT22;12319;49.204;8.116;2023-07-13T14:25:27;34.00;33.00
24164;DHT22;12319;49.204;8.116;2023-07-13T14:27:57;33.60;32.80
24164;DHT22;12319;49.204;8.116;2023-07-13T14:30:24;33.20;33.20
24164;DHT22;12319;49.204;8.116;2023-07-13T14:32:50;32.70;33.90
24164;DHT22;12319;49.204;8.116;2023-07-13T14:35:19;32.20;33.90
24164;DHT22;12319;49.204;8.116;2023-07-13T14:37:47;31.80;34.80
24164;DHT22;12319;49.204;8.116;2023-07-13T14:40:31;31.40;34.40
24164;DHT22;12319;49.204;8.116;2023-07-13T14:42:57;31.20;34.80
24164;DHT22;12319;49.204;8.116;2023-07-13T14:45:23;31.20;35.00
24164;DHT22;12319;49.204;8.116;2023-07-13T14:47:50;31.20;35.10
24164;DHT22;12319;49.204;8.116;2023-07-13T14:50:23;31.20;35.10
24164;DHT22;12319;49.204;8.116;2023-07-13T14:52:49;31.20;35.10
24164;DHT22;12319;49.204;8.116;2023-07-13T14:55:17;31.10;35.00
24164;DHT22;12319;49.204;8.116;2023-07-13T14:57:43;31.30;35.30
24164;DHT22;12319;49.204;8.116;2023-07-13T15:00:12;31.50;35.10
24164;DHT22;12319;49.204;8.116;2023-07-13T15:02:39;31.80;34.90
24164;DHT22;12319;49.204;8.116;2023-07-13T15:05:20;32.10;34.50
24164;DHT22;12319;49.204;8.116;2023-07-13T15:07:48;32.20;34.50
24164;DHT22;12319;49.204;8.116;2023-07-13T15:10:20;32.30;34.70
24164;DHT22;12319;49.204;8.116;2023-07-13T15:12:47;32.20;34.30
24164;DHT22;12319;49.204;8.116;2023-07-13T15:15:13;31.90;34.50
24164;DHT22;12319;49.204;8.116;2023-07-13T15:17:41;31.70;34.50
24164;DHT22;12319;49.204;8.116;2023-07-13T15:20:19;31.40;34.50
24164;DHT22;12319;49.204;8.116;2023-07-13T15:22:46;31.20;35.00
24164;DHT22;12319;49.204;8.116;2023-07-13T15:25:19;30.90;35.30
24164;DHT22;12319;49.204;8.116;2023-07-13T15:27:45;30.60;35.40
24164;DHT22;12319;49.204;8.116;2023-07-13T15:30:11;30.30;35.90
24164;DHT22;12319;49.204;8.116;2023-07-13T15:32:37;30.10;35.90
24164;DHT22;12319;49.204;8.116;2023-07-13T15:35:05;29.90;35.90
24164;DHT22;12319;49.204;8.116;2023-07-13T15:37:30;29.80;36.20
24164;DHT22;12319;49.204;8.116;2023-07-13T15:39:56;29.60;36.50
24164;DHT22;12319;49.204;8.116;2023-07-13T15:42:23;29.40;36.70
24164;DHT22;12319;49.204;8.116;2023-07-13T15:44:49;29.20;37.00
24164;DHT22;12319;49.204;8.116;2023-07-13T15:47:15;29.10;37.10
24164;DHT22;12319;49.204;8.116;2023-07-13T15:49:41;28.90;37.10
24164;DHT22;12319;49.204;8.116;2023-07-13T15:52:21;28.80;37.20
24164;DHT22;12319;49.204;8.116;2023-07-13T15:54:47;28.70;37.50
24164;DHT22;12319;49.204;8.116;2023-07-13T15:57:13;28.60;37.50
24164;DHT22;12319;49.204;8.116;2023-07-13T15:59:40;28.50;37.60
24164;DHT22;12319;49.204;8.116;2023-07-13T16:02:17;28.30;37.90
24164;DHT22;12319;49.204;8.116;2023-07-13T16:04:43;28.30;38.10
24164;DHT22;12319;49.204;8.116;2023-07-13T16:07:14;28.30;38.10
24164;DHT22;12319;49.204;8.116;2023-07-13T16:09:43;28.20;38.30
24164;DHT22;12319;49.204;8.116;2023-07-13T16:12:13;28.20;38.30
24164;DHT22;12319;49.204;8.116;2023-07-13T16:14:40;28.20;38.50
24164;DHT22;12319;49.204;8.116;2023-07-13T16:17:10;28.10;38.40
24164;DHT22;12319;49.204;8.116;2023-07-13T16:19:36;28.10;38.40